Time;durP1;ratioP1;P1;durP2;ratioP2;P2;SDS_P1;SDS_P2;PMS_P1;PMS_P2;Temp;Humidity;BMP_temperature;BMP_pressure;BME280_temperature;BME280_humidity;BME280_pressure;Samples;Min_cycle;Max_cycle;Signal;HPM_P1;HPM_P2
2022/01/29 00:02:03;;;;;;;;;16.75;14.25;;;;;10.32;63.37;103150.50;4886265;29;45428;-72
2022/01/29 00:04:28;;;;;;;;;21.50;19.00;;;;;10.25;63.24;103151.28;4886410;29;45507;-72
2022/01/29 00:06:53;;;;;;;;;13.50;13.50;;;;;10.28;62.90;103145.97;4886460;29;45527;-72
2022/01/29 00:09:19;;;;;;;;;16.00;12.75;;;;;10.28;63.31;103145.09;4886512;29;46078;-72
2022/01/29 00:11:45;;;;;;;;;16.50;16.25;;;;;10.29;62.93;103149.53;4886381;29;45387;-72
2022/01/29 00:14:11;;;;;;;;;15.00;12.25;;;;;10.26;62.94;103137.06;4882657;29;45466;-72
2022/01/29 00:16:37;;;;;;;;;13.25;13.25;;;;;10.27;62.99;103146.84;4886337;29;45329;-72
2022/01/29 00:19:03;;;;;;;;;15.25;15.25;;;;;10.23;62.89;103142.38;4881214;29;45991;-72
2022/01/29 00:21:29;;;;;;;;;15.25;15.25;;;;;10.20;62.85;103131.69;4885299;29;45481;-72
2022/01/29 00:23:54;;;;;;;;;17.50;16.75;;;;;10.20;63.16;103123.69;4879524;29;45158;-72
2022/01/29 00:26:22;;;;;;;;;20.50;17.00;;;;;10.19;63.12;103128.13;4885939;29;45379;-72
2022/01/29 00:28:48;;;;;;;;;17.75;16.50;;;;;10.16;63.57;103120.09;4884499;29;46473;-72
2022/01/29 00:31:13;;;;;;;;;17.00;16.25;;;;;10.14;63.43;103115.63;4885788;29;45455;-72
2022/01/29 00:33:39;;;;;;;;;16.25;15.50;;;;;10.16;63.00;103111.22;4885622;29;45340;-72
2022/01/29 00:36:05;;;;;;;;;12.00;11.50;;;;;10.17;63.62;103107.63;4886238;29;45539;-72
2022/01/29 00:38:31;;;;;;;;;15.50;14.00;;;;;10.14;63.24;103087.16;4885973;29;45230;-72
2022/01/29 00:40:56;;;;;;;;;17.25;14.75;;;;;10.18;62.94;103083.63;4881596;29;45484;-72
2022/01/29 00:43:22;;;;;;;;;19.00;17.25;;;;;10.23;63.29;103090.78;4880762;29;45217;-72
2022/01/29 00:45:47;;;;;;;;;20.00;18.75;;;;;10.24;63.27;103088.13;4885052;29;45630;-72
2022/01/29 00:48:13;;;;;;;;;13.25;12.75;;;;;10.27;62.93;103088.13;4875480;29;45435;-72
2022/01/29 00:50:38;;;;;;;;;15.75;15.75;;;;;10.29;63.16;103085.47;4883779;29;45502;-72
2022/01/29 00:53:03;;;;;;;;;12.50;12.00;;;;;10.24;62.60;103072.13;4876127;29;45165;-72
2022/01/29 00:55:29;;;;;;;;;15.25;14.25;;;;;10.29;63.25;103081.03;4885223;29;45212;-72
2022/01/29 00:57:54;;;;;;;;;12.75;10.75;;;;;10.29;62.89;103078.38;4885339;29;46546;-72
2022/01/29 01:00:20;;;;;;;;;15.25;12.75;;;;;10.27;62.81;103079.22;4884357;29;45270;-72
2022/01/29 01:02:45;;;;;;;;;14.50;12.50;;;;;10.29;63.10;103081.03;4885762;29;45333;-72
2022/01/29 01:05:11;;;;;;;;;11.50;11.50;;;;;10.30;63.06;103076.59;4883240;29;45478;-73
2022/01/29 01:07:37;;;;;;;;;18.50;12.00;;;;;10.31;62.70;103073.03;4884608;29;46106;-72
2022/01/29 01:10:04;;;;;;;;;13.00;12.25;;;;;10.32;63.01;103072.19;4885373;29;45459;-72
2022/01/29 01:12:30;;;;;;;;;11.00;11.00;;;;;10.32;62.84;103061.50;4885762;29;45444;-72
2022/01/29 01:14:55;;;;;;;;;14.00;11.25;;;;;10.31;63.17;103065.03;4885391;29;45470;-72
2022/01/29 01:17:20;;;;;;;;;13.00;10.75;;;;;10.32;63.05;103077.50;4884616;29;45325;-72
2022/01/29 01:19:46;;;;;;;;;16.75;14.25;;;;;10.29;63.05;103077.47;4885342;29;45189;-72
2022/01/29 01:22:14;;;;;;;;;17.00;12.25;;;;;10.30;63.12;103074.81;4874906;29;45389;-72
2022/01/29 01:24:40;;;;;;;;;13.00;13.00;;;;;10.31;63.78;103065.03;4885240;29;45458;-73
2022/01/29 01:27:05;;;;;;;;;12.75;12.75;;;;;10.02;64.00;103020.34;4884648;29;45325;-73
2022/01/29 01:29:30;;;;;;;;;18.25;17.50;;;;;10.22;63.89;103062.28;4885260;29;45343;-72
2022/01/29 01:31:56;;;;;;;;;13.25;12.00;;;;;10.22;63.95;103070.31;4884732;29;45372;-72
2022/01/29 01:34:23;;;;;;;;;18.25;15.75;;;;;10.16;63.96;103063.16;4899682;29;45515;-72
2022/01/29 01:36:56;;;;;;;;;14.75;12.50;;;;;10.09;64.26;103053.31;4899485;29;47316;-72
2022/01/29 01:39:27;;;;;;;;;12.50;12.50;;;;;10.17;64.43;103063.19;4877425;29;45635;-72
2022/01/29 01:42:03;;;;;;;;;17.50;11.25;;;;;10.17;64.23;103064.94;4870380;29;45234;-72
2022/01/29 01:44:42;;;;;;;;;11.25;10.00;;;;;10.16;64.44;103068.50;4884773;29;45261;-72
2022/01/29 01:47:07;;;;;;;;;15.00;13.00;;;;;10.13;64.34;103063.13;4884448;29;47046;-72
2022/01/29 01:49:33;;;;;;;;;14.75;12.25;;;;;10.10;64.74;103060.44;4885151;29;45509;-72
2022/01/29 01:51:58;;;;;;;;;13.50;11.75;;;;;10.14;64.51;103072.91;4880895;29;45353;-72
2022/01/29 01:54:24;;;;;;;;;13.25;11.00;;;;;10.11;65.30;103054.25;4884664;29;45287;-72
2022/01/29 01:56:49;;;;;;;;;15.00;12.25;;;;;10.14;64.80;103060.47;4879028;29;47885;-72
2022/01/29 01:59:14;;;;;;;;;11.00;11.00;;;;;10.13;65.35;103057.81;4884211;29;45428;-72
2022/01/29 02:01:40;;;;;;;;;12.25;12.25;;;;;10.08;65.42;103048.88;4884179;29;45339;-72
2022/01/29 02:04:05;;;;;;;;;11.50;11.25;;;;;10.12;65.01;103054.25;4884750;29;45318;-72
2022/01/29 02:06:30;;;;;;;;;9.75;8.50;;;;;10.12;65.29;103048.91;4884722;29;45315;-72
2022/01/29 02:08:59;;;;;;;;;15.25;11.00;;;;;10.12;65.59;103050.66;4884664;29;45440;-72
2022/01/29 02:11:26;;;;;;;;;15.75;11.50;;;;;10.11;65.24;103047.13;4884539;29;45316;-72
2022/01/29 02:13:52;;;;;;;;;16.75;12.00;;;;;10.13;65.37;103039.13;4881243;29;45571;-72
2022/01/29 02:16:17;;;;;;;;;16.00;12.00;;;;;10.11;65.50;103036.44;4884500;29;45399;-72
2022/01/29 02:18:44;;;;;;;;;13.25;10.75;;;;;10.09;65.55;103035.53;4884290;29;45312;-72
2022/01/29 02:21:11;;;;;;;;;19.25;13.25;;;;;10.07;64.94;103020.38;4883371;29;45497;-72
2022/01/29 02:23:36;;;;;;;;;15.50;13.00;;;;;10.13;65.64;103031.13;4884513;29;45423;-72
2022/01/29 02:26:02;;;;;;;;;13.75;11.75;;;;;10.12;65.64;103032.91;4883930;29;46074;-72
2022/01/29 02:28:27;;;;;;;;;15.00;13.00;;;;;10.10;65.23;103023.09;4882867;29;45352;-72
2022/01/29 02:31:00;;;;;;;;;13.50;12.75;;;;;10.08;65.41;103017.72;4884029;29;45269;-72
2022/01/29 02:33:26;;;;;;;;;15.50;14.50;;;;;10.11;65.65;103024.88;4884445;29;45331;-72
2022/01/29 02:35:54;;;;;;;;;11.75;11.00;;;;;10.12;65.43;103021.31;4884153;29;46296;-72
2022/01/29 02:38:23;;;;;;;;;14.00;12.50;;;;;10.12;65.28;103014.22;4884234;29;45330;-72
2022/01/29 02:40:53;;;;;;;;;14.25;12.75;;;;;10.15;65.14;103007.97;4883645;29;45462;-72
2022/01/29 02:43:23;;;;;;;;;15.25;13.25;;;;;10.15;64.92;103006.19;4877603;29;45517;-73
2022/01/29 02:45:53;;;;;;;;;12.25;12.25;;;;;10.12;65.20;102994.63;4883361;29;46563;-72
2022/01/29 02:48:20;;;;;;;;;13.00;12.00;;;;;10.14;65.10;102995.50;4884219;29;45272;-72
2022/01/29 02:50:46;;;;;;;;;15.00;12.50;;;;;10.12;65.49;102982.19;4878720;29;45395;-72
2022/01/29 02:53:11;;;;;;;;;14.50;11.00;;;;;10.13;65.50;102986.63;4884209;29;45592;-72
2022/01/29 02:55:37;;;;;;;;;13.50;12.50;;;;;10.17;65.36;102979.53;4883519;29;46591;-72
2022/01/29 02:58:02;;;;;;;;;10.00;10.00;;;;;10.18;65.66;102981.31;4882678;29;45483;-72
2022/01/29 03:00:28;;;;;;;;;16.50;11.00;;;;;10.12;65.69;102967.94;4880345;29;46003;-72
2022/01/29 03:02:53;;;;;;;;;11.00;11.00;;;;;10.14;65.42;102975.06;4883791;29;45245;-72
2022/01/29 03:05:19;;;;;;;;;16.75;15.00;;;;;10.11;65.33;102955.50;4884114;29;45311;-72
2022/01/29 03:07:45;;;;;;;;;8.25;8.25;;;;;10.16;65.88;102961.75;4898593;29;45390;-72
2022/01/29 03:10:11;;;;;;;;;11.50;10.00;;;;;10.15;65.60;102970.63;4884121;29;45325;-72
2022/01/29 03:12:37;;;;;;;;;12.00;10.00;;;;;10.12;65.57;102960.84;4883442;29;45245;-72
2022/01/29 03:15:08;;;;;;;;;16.00;12.00;;;;;10.16;65.40;102957.28;4890839;29;46907;-73
2022/01/29 03:17:34;;;;;;;;;12.50;12.25;;;;;10.15;65.72;102954.59;4879895;29;45353;-72
2022/01/29 03:20:00;;;;;;;;;11.25;10.50;;;;;10.13;65.48;102954.59;4884085;29;45370;-72
2022/01/29 03:22:25;;;;;;;;;7.00;6.00;;;;;10.09;65.58;102939.47;4880819;29;45304;-73
2022/01/29 03:24:51;;;;;;;;;11.00;10.75;;;;;10.11;66.23;102953.72;4883892;29;46150;-72
2022/01/29 03:27:16;;;;;;;;;9.25;9.25;;;;;10.12;65.71;102941.25;4883422;29;45352;-72
2022/01/29 03:29:42;;;;;;;;;12.50;12.00;;;;;10.15;65.61;102950.16;4878169;29;45458;-72
2022/01/29 03:32:07;;;;;;;;;13.25;12.50;;;;;10.07;66.22;102935.88;4882963;29;45469;-72
2022/01/29 03:34:33;;;;;;;;;11.50;10.75;;;;;10.15;65.82;102942.16;4886957;29;45249;-72
2022/01/29 03:36:59;;;;;;;;;9.25;9.00;;;;;10.16;65.78;102951.94;4887059;29;45340;-73
2022/01/29 03:39:27;;;;;;;;;12.00;9.00;;;;;10.16;65.85;102951.94;4887086;29;45273;-73
2022/01/29 03:41:53;;;;;;;;;13.50;10.25;;;;;10.16;66.01;102953.75;4885368;29;45717;-73
2022/01/29 03:44:20;;;;;;;;;11.75;11.75;;;;;10.17;66.04;102952.84;4882905;29;46346;-73
2022/01/29 03:46:45;;;;;;;;;9.25;9.00;;;;;10.13;66.19;102948.38;4886338;29;45381;-72
2022/01/29 03:49:11;;;;;;;;;10.75;10.00;;;;;10.19;66.37;102965.31;4879240;29;45751;-72
2022/01/29 03:51:36;;;;;;;;;10.00;9.75;;;;;10.18;66.06;102957.28;4886664;29;45628;-73
2022/01/29 03:54:02;;;;;;;;;11.50;11.50;;;;;10.18;65.97;102954.63;4886383;29;45827;-73
2022/01/29 03:56:27;;;;;;;;;10.50;9.25;;;;;10.09;66.13;102939.47;4886291;29;45248;-73
2022/01/29 03:58:53;;;;;;;;;13.25;12.00;;;;;10.17;66.55;102959.09;4886705;29;45401;-73
2022/01/29 04:01:18;;;;;;;;;12.00;12.00;;;;;10.17;66.45;102947.50;4886534;29;45760;-73
2022/01/29 04:03:43;;;;;;;;;11.00;9.75;;;;;10.18;66.13;102954.63;4886121;29;46274;-73
2022/01/29 04:06:09;;;;;;;;;13.75;12.25;;;;;10.12;66.25;102946.59;4884268;29;45940;-73
2022/01/29 04:08:40;;;;;;;;;12.75;11.50;;;;;10.14;66.42;102945.72;4886653;29;45291;-73
2022/01/29 04:11:07;;;;;;;;;11.75;11.00;;;;;10.18;66.48;102951.97;4886542;29;45363;-73
2022/01/29 04:13:33;;;;;;;;;11.50;11.50;;;;;10.22;66.03;102961.75;4885298;29;46877;-72
2022/01/29 04:15:58;;;;;;;;;14.00;12.75;;;;;10.23;66.51;102952.88;4900350;29;45262;-72
2022/01/29 04:18:24;;;;;;;;;12.00;10.25;;;;;10.23;66.63;102949.31;4886600;29;45220;-72
2022/01/29 04:20:49;;;;;;;;;13.00;12.00;;;;;10.20;66.19;102945.72;4884512;29;45501;-72
2022/01/29 04:23:14;;;;;;;;;15.75;12.75;;;;;10.19;66.65;102956.44;4885995;29;46099;-72
2022/01/29 04:25:40;;;;;;;;;14.25;12.00;;;;;10.16;66.38;102937.72;4885211;29;45466;-73
2022/01/29 04:28:06;;;;;;;;;10.25;10.00;;;;;10.14;66.32;102931.47;4886463;29;45300;-73
2022/01/29 04:30:41;;;;;;;;;9.50;9.50;;;;;10.17;66.42;102935.06;4886226;29;45471;-73
2022/01/29 04:35:44;;;;;;;;;15.50;11.50;;;;;10.22;66.59;102947.53;4885528;29;45422;-72
2022/01/29 04:38:10;;;;;;;;;14.25;12.00;;;;;10.17;67.19;102945.75;4879941;29;45462;-72
2022/01/29 04:40:36;;;;;;;;;17.00;11.25;;;;;10.17;66.73;102951.06;4880842;29;45534;-72
2022/01/29 04:43:02;;;;;;;;;11.75;11.75;;;;;10.18;67.13;102939.50;4890727;29;45890;-73
2022/01/29 04:45:28;;;;;;;;;11.25;10.25;;;;;10.22;66.94;102947.53;4882049;29;45263;-72
2022/01/29 04:47:53;;;;;;;;;13.50;12.50;;;;;10.10;66.87;102914.56;4900578;29;45307;-72
2022/01/29 04:50:18;;;;;;;;;11.00;9.25;;;;;10.20;67.07;102940.38;4885776;29;45358;-72
2022/01/29 04:52:44;;;;;;;;;8.75;8.75;;;;;10.22;67.28;102934.19;4886029;29;45428;-73
2022/01/29 04:55:10;;;;;;;;;10.00;10.00;;;;;10.22;67.23;102931.50;4883705;29;45314;-73
2022/01/29 04:57:41;;;;;;;;;10.75;10.00;;;;;10.23;67.19;102933.31;4883054;29;45381;-73
2022/01/29 05:00:10;;;;;;;;;11.25;11.25;;;;;10.23;66.79;102934.19;4885937;29;45202;-73
2022/01/29 05:02:35;;;;;;;;;16.75;11.75;;;;;10.27;66.98;102935.97;4885320;29;46109;-72
2022/01/29 05:05:02;;;;;;;;;10.75;10.75;;;;;10.27;67.32;102938.63;4884947;29;45530;-73
2022/01/29 05:07:28;;;;;;;;;13.00;10.00;;;;;10.28;67.52;102932.44;4885671;29;45304;-73
2022/01/29 05:09:54;;;;;;;;;10.75;10.50;;;;;10.30;67.59;102927.97;4885631;29;45487;-73
2022/01/29 05:12:24;;;;;;;;;9.75;8.75;;;;;10.26;67.11;102920.84;4884472;29;45502;-73
2022/01/29 05:15:08;;;;;;;;;9.50;8.50;;;;;10.32;67.16;102920.00;4881074;29;45573;-72
2022/01/29 05:28:36;;;;;;;;;13.25;10.75;;;;;10.33;67.41;102932.47;4885346;29;45611;-73
2022/01/29 05:31:01;;;;;;;;;11.00;10.75;;;;;10.39;67.15;102943.19;4883599;29;45356;-73
2022/01/29 05:33:27;;;;;;;;;10.25;10.25;;;;;10.37;67.00;102937.84;4885106;29;45417;-73
2022/01/29 05:35:52;;;;;;;;;11.25;7.25;;;;;10.42;67.12;102937.84;4884442;29;45469;-73
2022/01/29 05:38:17;;;;;;;;;10.50;10.25;;;;;10.42;67.39;102943.19;4885467;29;45317;-73
2022/01/29 05:40:43;;;;;;;;;10.75;10.00;;;;;10.46;67.00;102936.97;4884891;29;45368;-73
2022/01/29 05:43:08;;;;;;;;;12.00;11.00;;;;;10.47;67.17;102935.19;4898903;29;47193;-73
2022/01/29 05:45:33;;;;;;;;;11.00;9.50;;;;;10.46;67.07;102925.41;4878525;29;45417;-73
2022/01/29 05:47:59;;;;;;;;;10.75;10.50;;;;;10.48;67.19;102920.97;4881423;29;45466;-73
2022/01/29 05:50:24;;;;;;;;;11.00;10.00;;;;;10.47;67.01;102916.50;4884870;29;45555;-73
2022/01/29 05:52:49;;;;;;;;;10.00;7.00;;;;;10.49;67.46;102922.72;4891914;29;47051;-73
2022/01/29 05:55:15;;;;;;;;;12.75;11.00;;;;;10.43;67.12;102915.59;4883888;29;45475;-73
2022/01/29 05:57:40;;;;;;;;;12.00;12.00;;;;;10.51;67.55;102921.84;4883861;29;45492;-73
2022/01/29 06:00:06;;;;;;;;;11.25;10.00;;;;;10.53;67.39;102917.41;4884583;29;45507;-73
2022/01/29 06:02:31;;;;;;;;;13.00;10.25;;;;;10.49;67.61;102912.97;4884333;29;45433;-73
2022/01/29 06:04:57;;;;;;;;;11.00;11.00;;;;;10.54;67.52;102927.22;4884718;29;45253;-73
2022/01/29 06:07:22;;;;;;;;;13.00;10.25;;;;;10.56;67.64;102919.22;4884912;29;45365;-73
2022/01/29 06:09:48;;;;;;;;;11.50;9.25;;;;;10.57;67.59;102918.31;4877191;29;45469;-73
2022/01/29 06:12:13;;;;;;;;;11.00;10.50;;;;;10.56;67.52;102914.75;4878082;29;47249;-73
2022/01/29 06:14:39;;;;;;;;;11.25;11.25;;;;;10.56;67.23;102916.53;4883278;29;45327;-73
2022/01/29 06:17:04;;;;;;;;;12.00;9.75;;;;;10.54;67.80;102905.84;4884700;29;45300;-73
2022/01/29 06:19:30;;;;;;;;;11.00;10.00;;;;;10.59;67.30;102921.84;4884527;29;45598;-73
2022/01/29 06:21:55;;;;;;;;;14.50;12.25;;;;;10.52;67.83;102910.31;4871176;29;45570;-73
2022/01/29 06:24:21;;;;;;;;;12.00;10.75;;;;;10.55;67.35;102912.06;4882803;29;45290;-73
2022/01/29 06:26:47;;;;;;;;;10.75;10.75;;;;;10.63;67.30;102918.31;4884483;29;45427;-72
2022/01/29 06:29:12;;;;;;;;;9.50;8.75;;;;;10.61;67.48;102921.88;4884330;29;45384;-72
2022/01/29 06:31:38;;;;;;;;;11.00;10.25;;;;;10.65;67.65;102931.69;4884300;29;45431;-72
2022/01/29 06:34:03;;;;;;;;;11.50;11.25;;;;;10.61;67.48;102917.44;4884317;29;45351;-73
2022/01/29 06:36:28;;;;;;;;;13.25;12.00;;;;;10.56;67.78;102909.41;4882797;29;45329;-73
2022/01/29 06:38:54;;;;;;;;;9.50;9.25;;;;;10.65;67.50;102921.00;4882219;29;45602;-73
2022/01/29 06:41:19;;;;;;;;;9.25;9.25;;;;;10.67;67.67;102917.44;4882153;29;46666;-73
2022/01/29 06:43:45;;;;;;;;;11.00;10.25;;;;;10.67;67.73;102919.22;4883107;29;45320;-73
2022/01/29 06:46:10;;;;;;;;;11.75;9.75;;;;;10.69;67.89;102918.34;4875496;29;45532;-73
2022/01/29 06:48:35;;;;;;;;;17.75;13.25;;;;;10.69;68.07;102917.44;4875479;29;45471;-73
2022/01/29 06:51:01;;;;;;;;;11.50;8.75;;;;;10.71;67.86;102913.00;4883444;29;46102;-73
2022/01/29 06:53:27;;;;;;;;;9.25;8.75;;;;;10.71;67.67;102918.34;4883691;29;45226;-73
2022/01/29 06:55:52;;;;;;;;;10.75;10.00;;;;;10.65;67.71;102902.31;4881148;29;45241;-73
2022/01/29 06:58:18;;;;;;;;;9.00;8.75;;;;;10.69;67.71;102909.41;4883874;29;45294;-73
2022/01/29 07:00:43;;;;;;;;;12.00;11.00;;;;;10.68;67.13;102903.19;4883568;29;46003;-73
2022/01/29 07:03:09;;;;;;;;;9.00;9.00;;;;;10.70;67.76;102913.88;4884033;29;45210;-71
2022/01/29 07:05:34;;;;;;;;;11.00;9.75;;;;;10.70;67.50;102912.09;4886232;29;45297;-71
2022/01/29 07:08:00;;;;;;;;;10.75;9.00;;;;;10.70;67.97;102908.53;4885627;29;45503;-74
2022/01/29 07:10:26;;;;;;;;;25.25;24.75;;;;;10.66;68.08;102904.06;4886845;29;45316;-74
2022/01/29 07:12:51;;;;;;;;;16.50;15.00;;;;;10.69;67.74;102905.00;4894679;29;45694;-74
2022/01/29 07:15:17;;;;;;;;;12.25;9.50;;;;;10.73;68.02;102909.44;4901201;28;45348;-68
2022/01/29 07:17:42;;;;;;;;;9.50;9.50;;;;;10.71;68.07;102905.88;4880945;29;45495;-69
2022/01/29 07:20:08;;;;;;;;;13.00;11.25;;;;;10.74;67.74;102905.88;4884570;29;45527;-68
2022/01/29 07:22:34;;;;;;;;;11.00;10.25;;;;;10.74;67.62;102900.53;4884657;29;45898;-69
2022/01/29 07:24:59;;;;;;;;;10.25;9.25;;;;;10.73;67.89;102885.41;4886255;29;45665;-71
2022/01/29 07:27:24;;;;;;;;;10.00;9.50;;;;;10.74;67.56;102883.59;4886758;29;45373;-71
2022/01/29 07:29:50;;;;;;;;;7.50;7.50;;;;;10.80;68.14;102896.09;4886717;29;45331;-71
2022/01/29 07:32:15;;;;;;;;;12.25;10.25;;;;;10.81;67.62;102893.44;4886633;29;45292;-71
2022/01/29 07:34:41;;;;;;;;;10.00;9.00;;;;;10.80;68.00;102894.31;4886823;29;45411;-71
2022/01/29 07:37:06;;;;;;;;;7.00;6.75;;;;;10.82;67.93;102891.63;4886619;29;45424;-71
2022/01/29 07:39:32;;;;;;;;;6.00;6.00;;;;;10.82;68.12;102892.53;4876656;29;45301;-71
2022/01/29 07:41:58;;;;;;;;;7.50;7.50;;;;;10.81;67.74;102892.50;4884641;29;45394;-71
2022/01/29 07:44:24;;;;;;;;;10.00;10.00;;;;;10.81;68.07;102895.19;4881114;29;45211;-71
2022/01/29 07:46:50;;;;;;;;;6.25;6.25;;;;;10.85;67.77;102897.00;4886264;29;45612;-71
2022/01/29 07:49:16;;;;;;;;;6.75;6.75;;;;;10.72;67.94;102880.94;4886639;29;45985;-71
2022/01/29 07:51:41;;;;;;;;;7.75;7.75;;;;;10.89;67.97;102894.34;4885134;29;45449;-71
2022/01/29 07:54:07;;;;;;;;;9.75;9.00;;;;;10.88;67.73;102895.22;4886570;29;45355;-71
2022/01/29 07:56:33;;;;;;;;;10.00;6.50;;;;;10.89;67.94;102893.41;4886545;29;45551;-71
2022/01/29 07:58:59;;;;;;;;;9.00;8.00;;;;;10.94;68.17;102903.25;4886350;29;46400;-70
2022/01/29 08:01:25;;;;;;;;;9.25;7.75;;;;;10.98;67.78;102895.22;4900927;29;45545;-71
2022/01/29 08:03:52;;;;;;;;;5.75;5.75;;;;;10.98;68.03;102888.09;4886883;29;45367;-71
2022/01/29 08:06:20;;;;;;;;;5.50;5.25;;;;;10.92;68.03;102885.41;4901314;29;45589;-70
2022/01/29 08:08:45;;;;;;;;;5.25;5.00;;;;;10.98;67.90;102887.22;4882730;29;45459;-71
2022/01/29 08:11:12;;;;;;;;;5.00;5.00;;;;;10.93;67.95;102874.72;4885985;29;45280;-74
2022/01/29 08:13:38;;;;;;;;;7.75;7.25;;;;;11.02;67.84;102888.97;4885533;29;45628;-71
2022/01/29 08:16:04;;;;;;;;;8.75;5.50;;;;;11.03;68.25;102890.78;4885579;29;45481;-72
2022/01/29 08:18:29;;;;;;;;;6.25;5.75;;;;;11.02;68.18;102889.84;4885980;29;45541;-72
2022/01/29 08:20:55;;;;;;;;;7.00;6.00;;;;;11.06;68.22;102888.97;4880325;29;45518;-71
2022/01/29 08:23:21;;;;;;;;;7.75;6.00;;;;;11.06;68.18;102888.06;4883967;29;45339;-71
2022/01/29 08:25:46;;;;;;;;;5.00;4.50;;;;;11.07;68.25;102885.41;4889522;29;45502;-71
2022/01/29 08:28:12;;;;;;;;;6.50;5.25;;;;;11.09;68.09;102880.06;4880719;29;45521;-72
2022/01/29 08:30:38;;;;;;;;;6.25;6.25;;;;;11.09;68.35;102889.00;4884744;29;45352;-72
2022/01/29 08:33:06;;;;;;;;;5.25;5.25;;;;;11.10;68.20;102888.06;4884129;29;46803;-72
2022/01/29 08:35:31;;;;;;;;;5.00;5.00;;;;;11.12;68.30;102882.72;4884847;29;45557;-72
2022/01/29 08:37:57;;;;;;;;;5.25;5.00;;;;;11.13;68.09;102881.84;4883789;29;45510;-72
2022/01/29 08:40:23;;;;;;;;;6.50;5.00;;;;;11.12;68.25;102883.63;4883951;29;45399;-72
2022/01/29 08:42:49;;;;;;;;;7.50;4.00;;;;;11.18;68.29;102897.91;4882364;29;45335;-71
2022/01/29 08:45:14;;;;;;;;;3.50;3.50;;;;;11.19;68.05;102894.31;4884325;29;45590;-71
2022/01/29 08:47:40;;;;;;;;;3.00;3.00;;;;;11.23;68.11;102899.66;4893815;29;45655;-71
2022/01/29 08:50:08;;;;;;;;;3.00;3.00;;;;;11.25;68.09;102897.00;4884736;29;45332;-71
2022/01/29 08:52:33;;;;;;;;;3.75;3.75;;;;;11.26;68.29;102898.75;4884589;29;45288;-71
2022/01/29 08:54:59;;;;;;;;;2.75;2.75;;;;;11.28;68.09;102891.66;4883959;29;45396;-71
2022/01/29 08:57:24;;;;;;;;;3.50;2.50;;;;;11.25;68.58;102886.31;4884593;29;46378;-72
2022/01/29 08:59:50;;;;;;;;;4.00;3.00;;;;;11.25;68.24;102878.28;4884555;29;45254;-72
2022/01/29 09:02:15;;;;;;;;;1.75;1.75;;;;;11.32;68.27;102883.59;4884238;29;45295;-72
2022/01/29 09:04:41;;;;;;;;;7.00;3.25;;;;;11.34;68.14;102885.38;4884475;29;45634;-72
2022/01/29 09:07:06;;;;;;;;;4.25;2.00;;;;;11.34;68.11;102882.72;4884285;29;46153;-71
2022/01/29 09:09:32;;;;;;;;;2.00;2.00;;;;;11.27;68.35;102880.03;4884378;29;45523;-71
2022/01/29 09:11:58;;;;;;;;;1.75;1.75;;;;;11.26;68.47;102874.69;4884381;29;45364;-72
2022/01/29 09:14:23;;;;;;;;;2.00;2.00;;;;;11.30;68.51;102884.50;4884225;29;45404;-72
2022/01/29 09:16:48;;;;;;;;;1.75;1.75;;;;;11.32;68.40;102888.94;4884167;29;45440;-71
2022/01/29 09:19:14;;;;;;;;;1.25;1.25;;;;;11.35;68.44;102890.75;4883871;29;45375;-71
2022/01/29 09:21:39;;;;;;;;;1.50;1.50;;;;;11.37;68.26;102874.69;4871811;29;45388;-71
2022/01/29 09:24:05;;;;;;;;;2.00;2.00;;;;;11.37;68.31;102874.69;4884952;29;45225;-71
2022/01/29 09:26:30;;;;;;;;;1.50;1.50;;;;;11.43;68.68;102886.28;4884475;29;45373;-71
2022/01/29 09:28:55;;;;;;;;;1.00;1.00;;;;;11.44;68.22;102884.47;4882696;29;45458;-76
2022/01/29 09:31:21;;;;;;;;;1.00;1.00;;;;;11.44;68.22;102879.13;4879358;29;45508;-75
2022/01/29 09:33:47;;;;;;;;;2.00;1.50;;;;;11.45;68.02;102884.47;4865178;29;45353;-67
2022/01/29 09:36:12;;;;;;;;;2.50;2.00;;;;;11.40;68.48;102870.22;4891401;29;46014;-70
2022/01/29 09:38:37;;;;;;;;;3.25;1.75;;;;;11.42;68.52;102871.09;4884778;29;45134;-70
2022/01/29 09:41:04;;;;;;;;;2.00;2.00;;;;;11.48;68.55;102867.56;4880045;29;45134;-70
2022/01/29 09:43:32;;;;;;;;;1.25;1.25;;;;;11.47;68.57;102866.63;4879856;29;45535;-70
2022/01/29 09:45:58;;;;;;;;;3.00;3.00;;;;;11.49;68.58;102863.97;4884286;29;46379;-70
2022/01/29 09:48:27;;;;;;;;;2.00;2.00;;;;;11.56;68.33;102862.16;4884479;29;45420;-70
2022/01/29 09:50:53;;;;;;;;;2.75;2.75;;;;;11.55;68.55;102855.06;4884488;29;45315;-70
2022/01/29 09:53:19;;;;;;;;;3.00;3.00;;;;;11.59;68.06;102864.84;4884943;29;45495;-70
2022/01/29 09:55:46;;;;;;;;;2.00;2.00;;;;;11.61;68.35;102869.31;4884166;29;46229;-70
2022/01/29 09:58:11;;;;;;;;;2.00;2.00;;;;;11.58;68.54;102861.28;4884350;29;45565;-70
2022/01/29 10:00:37;;;;;;;;;3.00;3.00;;;;;11.57;68.53;102856.81;4882833;29;45490;-71
2022/01/29 10:03:13;;;;;;;;;3.00;3.00;;;;;11.63;68.55;102872.84;4884922;29;45380;-71
2022/01/29 10:05:42;;;;;;;;;5.50;5.50;;;;;11.65;68.25;102881.75;4874221;29;46055;-71
2022/01/29 10:08:08;;;;;;;;;3.00;3.00;;;;;11.68;68.38;102881.75;4873314;29;45441;-71
2022/01/29 10:10:47;;;;;;;;;4.25;4.00;;;;;11.71;68.60;102883.53;4884580;29;45382;-71
2022/01/29 10:13:25;;;;;;;;;4.25;3.25;;;;;11.71;68.37;102878.19;4884586;29;45371;-71
2022/01/29 10:15:52;;;;;;;;;2.25;2.00;;;;;11.70;68.44;102886.22;4883337;29;46279;-71
2022/01/29 10:18:22;;;;;;;;;3.25;2.50;;;;;11.66;68.56;102875.53;4884745;29;45478;-71
2022/01/29 10:20:47;;;;;;;;;4.00;4.00;;;;;11.67;68.45;102874.63;4896829;29;45443;-71
2022/01/29 10:23:13;;;;;;;;;3.75;3.00;;;;;11.71;68.79;102880.88;4882955;29;45426;-71
2022/01/29 10:25:42;;;;;;;;;5.00;5.00;;;;;11.67;68.76;102881.75;4883507;29;46281;-71
2022/01/29 10:28:13;;;;;;;;;3.00;3.00;;;;;11.72;68.94;102885.31;4882243;29;45385;-71
2022/01/29 10:30:48;;;;;;;;;3.00;3.00;;;;;11.75;68.69;102885.31;4883193;29;45489;-71
2022/01/29 10:33:40;;;;;;;;;2.75;2.75;;;;;11.76;68.63;102881.75;4884485;29;45419;-71
2022/01/29 10:36:08;;;;;;;;;2.50;2.00;;;;;11.76;68.66;102884.41;4877818;29;46910;-71
2022/01/29 10:38:40;;;;;;;;;2.25;2.00;;;;;11.82;68.45;102880.81;4898799;29;45385;-72
2022/01/29 10:41:21;;;;;;;;;1.75;1.50;;;;;11.83;68.46;102882.63;4883555;29;45288;-72
2022/01/29 10:44:19;;;;;;;;;2.00;2.00;;;;;11.85;68.38;102879.03;4884433;29;45236;-72
2022/01/29 10:46:50;;;;;;;;;2.00;2.00;;;;;11.83;68.47;102877.25;4883778;29;47320;-72
2022/01/29 10:49:17;;;;;;;;;1.25;1.25;;;;;11.87;68.21;102879.03;4895288;29;45500;-72
2022/01/29 10:51:54;;;;;;;;;3.25;2.00;;;;;11.87;68.49;102873.66;4883977;29;45434;-75
2022/01/29 10:54:20;;;;;;;;;4.75;4.25;;;;;11.85;68.63;102871.00;4883853;29;45292;-72
2022/01/29 10:56:51;;;;;;;;;3.00;3.00;;;;;11.90;68.45;102875.47;4884102;29;46216;-72
2022/01/29 10:59:17;;;;;;;;;1.50;1.50;;;;;11.89;68.14;102865.63;4883455;29;45310;-72
2022/01/29 11:01:49;;;;;;;;;3.00;3.00;;;;;11.89;68.18;102873.66;4884143;29;45316;-72
2022/01/29 11:04:14;;;;;;;;;2.00;2.00;;;;;11.90;68.50;102872.78;4884072;29;45290;-72
2022/01/29 11:06:44;;;;;;;;;2.75;2.75;;;;;11.88;68.14;102875.47;4898623;29;46050;-72
2022/01/29 11:09:12;;;;;;;;;1.00;1.00;;;;;11.95;68.28;102881.72;4884107;29;45555;-71
2022/01/29 11:11:39;;;;;;;;;1.00;1.00;;;;;11.92;68.44;102871.00;4884114;29;45473;-71
2022/01/29 11:14:07;;;;;;;;;1.50;1.00;;;;;11.94;68.07;102875.44;4883924;29;45574;-72
2022/01/29 11:16:33;;;;;;;;;1.00;1.00;;;;;11.95;68.24;102876.34;4878195;29;46118;-69
2022/01/29 11:18:59;;;;;;;;;1.25;1.25;;;;;11.91;68.23;102863.84;4883054;29;45455;-69
2022/01/29 11:21:25;;;;;;;;;1.00;1.00;;;;;11.96;68.25;102886.16;4883417;29;45492;-69
2022/01/29 11:23:51;;;;;;;;;1.00;1.00;;;;;11.95;68.04;102876.34;4883960;29;45430;-70
2022/01/29 11:26:17;;;;;;;;;2.25;1.00;;;;;12.01;68.40;102892.38;4883443;29;45424;-70
2022/01/29 11:28:42;;;;;;;;;2.00;2.00;;;;;11.93;68.12;102873.69;4883196;29;45434;-69